createdAt,value
2018-07-27T00:00:23.846Z,95501.55
2018-07-27T00:02:52.373Z,95520.81
2018-07-27T00:05:21.014Z,95542.10
2018-07-27T00:07:51.031Z,95558.33
2018-07-27T00:10:19.905Z,95580.64
2018-07-27T00:12:48.457Z,95530.95
2018-07-27T00:15:17.000Z,95554.27
2018-07-27T00:17:45.859Z,95558.33
2018-07-27T00:20:14.381Z,95592.80
2018-07-27T00:22:42.892Z,95626.27
2018-07-27T00:25:11.453Z,95660.74
2018-07-27T00:27:39.967Z,95616.13
2018-07-27T00:30:08.629Z,95569.48
2018-07-27T00:32:37.106Z,95513.71
2018-07-27T00:35:06.035Z,95521.83
2018-07-27T00:37:34.607Z,95473.16
2018-07-27T00:40:03.123Z,95541.09
2018-07-27T00:42:31.760Z,95662.77
2018-07-27T00:45:00.289Z,95735.78
2018-07-27T00:47:28.788Z,95750.99
2018-07-27T00:49:57.313Z,95666.83
2018-07-27T00:52:25.871Z,95650.60
2018-07-27T00:54:54.479Z,95713.47
2018-07-27T00:57:23.037Z,95670.88
2018-07-27T00:59:51.523Z,95716.52
2018-07-27T01:02:20.076Z,95737.81
2018-07-27T01:04:48.893Z,95809.80
2018-07-27T01:07:17.423Z,95849.36
2018-07-27T01:09:46.113Z,95786.48
2018-07-27T01:12:14.646Z,95709.41
2018-07-27T01:14:43.140Z,95696.23
2018-07-27T01:17:11.701Z,95732.73
2018-07-27T01:19:40.240Z,95777.36
2018-07-27T01:22:08.882Z,95806.77
2018-07-27T01:24:37.388Z,95811.84
2018-07-27T01:27:06.056Z,95890.94
2018-07-27T01:29:34.628Z,95828.06
2018-07-27T01:32:03.109Z,95877.75
2018-07-27T01:34:31.642Z,95903.10
2018-07-27T01:37:00.169Z,95842.26
2018-07-27T01:39:28.673Z,95878.77
2018-07-27T01:41:57.190Z,95917.30
2018-07-27T01:44:25.738Z,95857.47
2018-07-27T01:46:54.294Z,95863.55
2018-07-27T01:49:22.756Z,95846.31
2018-07-27T01:51:51.306Z,95913.25
2018-07-27T01:54:20.073Z,95894.98
2018-07-27T01:56:48.602Z,95938.59
2018-07-27T01:59:17.272Z,95899.05
2018-07-27T02:01:45.789Z,95948.73
2018-07-27T02:04:14.244Z,96002.48
2018-07-27T02:06:42.762Z,95910.20
2018-07-27T02:09:11.317Z,95924.40
2018-07-27T02:11:39.810Z,95951.78
2018-07-27T02:14:08.339Z,96000.45
2018-07-27T02:16:37.277Z,95991.33
2018-07-27T02:19:05.906Z,95981.19
2018-07-27T02:21:34.504Z,96006.54
2018-07-27T02:24:03.010Z,96011.61
2018-07-27T02:26:31.564Z,96054.20
2018-07-27T02:29:00.093Z,96070.44
2018-07-27T02:31:28.683Z,95993.36
2018-07-27T02:33:57.237Z,96085.64
2018-07-27T02:36:25.733Z,96068.41
2018-07-27T02:38:54.252Z,96088.69
2018-07-27T02:41:22.767Z,96117.08
2018-07-27T02:43:51.475Z,96150.55
2018-07-27T02:46:20.615Z,96076.52
2018-07-27T02:48:49.164Z,96108.97
2018-07-27T02:51:17.724Z,96121.14
2018-07-27T02:53:46.262Z,96169.82
2018-07-27T02:56:14.800Z,96055.22
2018-07-27T02:58:43.263Z,96158.66
2018-07-27T03:01:12.136Z,96108.97
2018-07-27T03:03:40.619Z,96190.10
2018-07-27T03:06:09.098Z,96173.88
2018-07-27T03:08:37.621Z,96207.34
2018-07-27T03:11:06.156Z,96153.59
2018-07-27T03:13:34.723Z,96154.61
2018-07-27T03:16:03.259Z,96231.69
2018-07-27T03:18:31.752Z,96256.02
2018-07-27T03:21:00.269Z,96231.69
2018-07-27T03:23:28.973Z,96181.99
2018-07-27T03:25:57.559Z,96218.50
2018-07-27T03:28:26.146Z,96184.02
2018-07-27T03:30:54.879Z,96236.76
2018-07-27T03:33:23.375Z,96296.59
2018-07-27T03:35:51.913Z,96194.16
2018-07-27T03:38:20.555Z,96264.14
2018-07-27T03:40:49.102Z,96270.22
2018-07-27T03:43:17.594Z,96276.31
2018-07-27T03:45:46.130Z,96256.02
2018-07-27T03:48:14.642Z,96306.73
2018-07-27T03:50:43.224Z,96300.65
2018-07-27T03:53:11.739Z,96293.55
2018-07-27T03:55:40.291Z,96319.92
2018-07-27T03:58:08.879Z,96348.32
2018-07-27T04:00:37.478Z,96293.55
2018-07-27T04:03:06.231Z,96392.95
2018-07-27T04:05:34.771Z,96359.47
2018-07-27T04:08:03.258Z,96379.77
2018-07-27T04:10:31.852Z,96354.41
2018-07-27T04:13:00.443Z,96338.17
2018-07-27T04:15:28.966Z,96382.80
2018-07-27T04:18:01.024Z,96305.72
2018-07-27T04:22:51.631Z,96264.14
2018-07-27T04:25:20.550Z,96276.31
2018-07-27T04:27:49.346Z,96313.84
2018-07-27T04:30:18.143Z,96316.88
2018-07-27T04:32:46.664Z,96218.50
2018-07-27T04:35:15.562Z,96230.67
2018-07-27T04:37:44.103Z,96192.13
2018-07-27T04:40:12.639Z,96231.69
2018-07-27T04:42:41.238Z,96222.56
2018-07-27T04:45:09.901Z,96219.52
2018-07-27T04:47:38.597Z,96146.49
2018-07-27T04:50:07.947Z,96148.52
2018-07-27T04:52:36.477Z,96163.73
2018-07-27T04:55:05.043Z,96165.77
2018-07-27T04:57:33.635Z,96158.66
2018-07-27T05:00:02.297Z,96111.00
2018-07-27T05:02:31.022Z,96131.28
2018-07-27T05:04:59.481Z,96130.27
2018-07-27T05:07:28.000Z,96029.87
2018-07-27T05:09:56.485Z,95989.30
2018-07-27T05:12:24.977Z,95981.19
2018-07-27T05:14:53.481Z,96040.01
2018-07-27T05:17:22.013Z,96030.87
2018-07-27T05:19:50.534Z,95936.56
2018-07-27T05:22:19.172Z,95847.33
2018-07-27T05:24:47.796Z,95500.53
2018-07-27T05:27:16.318Z,95082.80
2018-07-27T05:29:44.780Z,95032.11
2018-07-27T05:32:13.304Z,95341.34
2018-07-27T05:34:41.839Z,95367.70
2018-07-27T05:37:10.347Z,94736.08
2018-07-27T05:39:38.828Z,94681.33
2018-07-27T05:42:07.457Z,94801.97
2018-07-27T05:44:35.964Z,94735.06
2018-07-27T05:47:04.582Z,94609.36
2018-07-27T05:49:33.052Z,94682.34
2018-07-27T05:52:01.581Z,95213.59
2018-07-27T05:54:30.061Z,94596.18
2018-07-27T05:56:58.700Z,94943.91
2018-07-27T05:59:27.257Z,94810.08
2018-07-27T06:01:55.721Z,94676.27
2018-07-27T06:04:24.200Z,94549.55
2018-07-27T06:06:52.793Z,94317.42
2018-07-27T06:09:21.268Z,94379.25
2018-07-27T06:11:49.777Z,94444.13
2018-07-27T06:14:18.384Z,94432.98
2018-07-27T06:16:46.903Z,94160.31
2018-07-27T06:19:15.382Z,94327.55
2018-07-27T06:21:44.009Z,94717.83
2018-07-27T06:24:12.497Z,94301.20
2018-07-27T06:26:40.974Z,94739.12
2018-07-27T06:29:09.473Z,94234.30
2018-07-27T06:31:37.963Z,94120.78
2018-07-27T06:34:06.518Z,94584.02
2018-07-27T06:36:34.985Z,94177.54
2018-07-27T06:39:03.744Z,93892.73
2018-07-27T06:41:32.232Z,94216.06
2018-07-27T06:44:00.719Z,94307.28
2018-07-27T06:46:29.224Z,94139.03
2018-07-27T06:48:57.701Z,93907.94
2018-07-27T06:51:26.202Z,93445.80
2018-07-27T06:53:54.721Z,94236.33
2018-07-27T06:56:23.271Z,94363.03
2018-07-27T06:58:51.781Z,93734.63
2018-07-27T07:01:20.297Z,94050.84
2018-07-27T07:03:49.120Z,94269.78
2018-07-27T07:06:17.621Z,93896.79
2018-07-27T07:08:46.318Z,94100.52
2018-07-27T07:11:14.777Z,94273.83
2018-07-27T07:13:43.282Z,94372.16
2018-07-27T07:16:12.245Z,94433.99
2018-07-27T07:18:40.716Z,94422.84
2018-07-27T07:21:09.180Z,94564.75
2018-07-27T07:23:37.673Z,94430.95
2018-07-27T07:26:06.502Z,94569.83
2018-07-27T07:28:34.756Z,94613.41
2018-07-27T07:31:03.250Z,94519.14
2018-07-27T07:33:31.761Z,94482.64
2018-07-27T07:36:00.321Z,94492.78
2018-07-27T07:38:28.938Z,94488.73
2018-07-27T07:40:57.417Z,94460.34
2018-07-27T07:43:26.000Z,94429.94
2018-07-27T07:45:54.485Z,94499.88
2018-07-27T07:48:23.242Z,94330.59
2018-07-27T07:50:51.764Z,94281.95
2018-07-27T07:53:20.284Z,94247.48
2018-07-27T07:55:49.401Z,94241.40
2018-07-27T07:58:17.861Z,94179.57
2018-07-27T08:00:46.836Z,94108.63
2018-07-27T08:03:15.706Z,94081.25
2018-07-27T08:05:44.249Z,93961.66
2018-07-27T08:08:12.709Z,93865.37
2018-07-27T08:10:41.213Z,93840.03
2018-07-27T08:13:09.657Z,93880.57
2018-07-27T08:15:38.253Z,93916.05
2018-07-27T08:18:06.708Z,93875.50
2018-07-27T08:20:35.205Z,93860.30
2018-07-27T08:23:03.697Z,93743.75
2018-07-27T08:26:43.313Z,93743.75
2018-07-27T08:29:13.910Z,93742.74
2018-07-27T08:31:43.446Z,93562.34
2018-07-27T08:34:12.912Z,93665.72
2018-07-27T08:36:41.393Z,93659.64
2018-07-27T08:39:11.167Z,93579.58
2018-07-27T08:41:40.304Z,93700.17
2018-07-27T08:44:09.805Z,93603.90
2018-07-27T08:46:39.168Z,93577.55
2018-07-27T08:49:07.932Z,93446.82
2018-07-27T08:51:36.420Z,93481.28
2018-07-27T08:54:04.950Z,93399.19
2018-07-27T08:56:33.469Z,93337.38
2018-07-27T08:59:02.169Z,93288.73
2018-07-27T09:01:30.811Z,93408.31
2018-07-27T09:03:59.354Z,93339.41
2018-07-27T09:06:27.883Z,93324.20
2018-07-27T09:08:56.487Z,93399.19
2018-07-27T09:11:25.254Z,93474.18
2018-07-27T09:13:54.577Z,93387.03
2018-07-27T09:16:23.224Z,93510.66
2018-07-27T09:18:52.275Z,93336.36
2018-07-27T09:21:20.808Z,93288.73
2018-07-27T09:23:49.337Z,93343.45
2018-07-27T09:26:17.921Z,93361.70
2018-07-27T09:28:46.437Z,93378.92
2018-07-27T09:31:14.904Z,93368.80
2018-07-27T09:33:43.410Z,93275.56
2018-07-27T09:36:11.954Z,93204.63
2018-07-27T09:38:40.440Z,93217.80
2018-07-27T09:41:09.005Z,93200.58
2018-07-27T09:43:37.597Z,93266.45
2018-07-27T09:46:06.881Z,93144.84
2018-07-27T09:48:35.356Z,93084.05
2018-07-27T09:51:03.921Z,93074.93
2018-07-27T09:53:32.456Z,93013.13
2018-07-27T09:56:01.073Z,93059.73
2018-07-27T09:58:29.623Z,92999.95
2018-07-27T10:01:03.334Z,92932.06
2018-07-27T10:03:32.364Z,92857.09
2018-07-27T10:06:00.829Z,92720.30
2018-07-27T10:08:29.333Z,92853.03
2018-07-27T10:10:57.868Z,92983.73
2018-07-27T10:13:26.360Z,92950.30
2018-07-27T10:15:55.308Z,92808.45
2018-07-27T10:18:24.257Z,92853.03
2018-07-27T10:20:52.710Z,92720.30
2018-07-27T10:23:21.277Z,92810.48
2018-07-27T10:25:49.885Z,92815.55
2018-07-27T10:28:18.362Z,92769.95
2018-07-27T10:30:46.845Z,92841.89
2018-07-27T10:33:15.365Z,92695.98
2018-07-27T10:35:43.911Z,92600.75
2018-07-27T10:38:12.416Z,92740.56
2018-07-27T10:40:40.941Z,92628.11
2018-07-27T10:43:09.509Z,92824.66
2018-07-27T10:45:38.005Z,92733.48
2018-07-27T10:48:06.518Z,92759.82
2018-07-27T10:50:35.036Z,92638.23
2018-07-27T10:53:03.521Z,92719.30
2018-07-27T10:55:31.991Z,92751.72
2018-07-27T10:58:00.476Z,92713.21
2018-07-27T11:00:29.059Z,92568.33
2018-07-27T11:02:57.530Z,92390.03
2018-07-27T11:05:26.033Z,92381.92
2018-07-27T11:07:54.522Z,92514.64
2018-07-27T11:10:23.061Z,92446.77
2018-07-27T11:12:51.658Z,92541.99
2018-07-27T11:15:20.227Z,92502.48
2018-07-27T11:17:48.771Z,92315.06
2018-07-27T11:20:17.232Z,92329.25
2018-07-27T11:22:45.717Z,92335.33
2018-07-27T11:25:14.238Z,92339.38
2018-07-27T11:27:42.785Z,92371.80
2018-07-27T11:30:11.278Z,92476.14
2018-07-27T11:32:39.820Z,92319.11
2018-07-27T11:35:08.299Z,92445.75
2018-07-27T11:37:36.760Z,92398.13
2018-07-27T11:40:06.293Z,92230.98
2018-07-27T11:42:34.842Z,92193.50
2018-07-27T11:45:03.712Z,92101.31
2018-07-27T11:47:32.218Z,91912.91
2018-07-27T11:50:00.709Z,92189.45
2018-07-27T11:52:29.250Z,92138.80
2018-07-27T11:54:57.718Z,92371.80
2018-07-27T11:57:26.389Z,92359.64
2018-07-27T11:59:54.832Z,92282.65
2018-07-27T12:02:23.697Z,92398.13
2018-07-27T12:04:52.318Z,92399.15
2018-07-27T12:07:20.832Z,92472.09
2018-07-27T12:09:49.381Z,92442.70
2018-07-27T12:12:17.956Z,92405.23
2018-07-27T12:14:46.562Z,92191.47
2018-07-27T12:17:15.338Z,92106.38
2018-07-27T12:19:43.821Z,92051.68
2018-07-27T12:22:12.441Z,91862.27
2018-07-27T12:24:41.026Z,92088.15
2018-07-27T12:27:09.572Z,92138.80
2018-07-27T12:29:38.545Z,92363.69
2018-07-27T12:32:07.218Z,92336.34
2018-07-27T12:34:35.693Z,92197.55
2018-07-27T12:37:04.500Z,92008.13
2018-07-27T12:39:33.461Z,92066.87
2018-07-27T12:42:01.963Z,92138.80
2018-07-27T12:44:30.460Z,92060.80
2018-07-27T12:46:59.040Z,91858.21
2018-07-27T12:49:27.500Z,91789.33
2018-07-27T12:51:56.247Z,91636.39
2018-07-27T12:54:24.869Z,91890.63
2018-07-27T12:56:53.870Z,91889.61
2018-07-27T12:59:22.368Z,92016.23
2018-07-27T13:01:50.821Z,91963.55
2018-07-27T13:04:19.341Z,92060.80
2018-07-27T13:06:47.849Z,91980.77
2018-07-27T13:09:16.394Z,91977.73
2018-07-27T13:11:44.922Z,92009.14
2018-07-27T13:14:13.385Z,91840.98
2018-07-27T13:16:41.930Z,91652.59
2018-07-27T13:19:13.654Z,91511.81
2018-07-27T13:21:42.217Z,91459.14
2018-07-27T13:24:10.732Z,91543.20
2018-07-27T13:26:39.234Z,91680.95
2018-07-27T13:29:07.798Z,91593.85
2018-07-27T13:31:58.245Z,91625.25
2018-07-27T13:34:44.638Z,91631.33
2018-07-27T13:37:13.547Z,91490.55
2018-07-27T13:39:42.731Z,91741.73
2018-07-27T13:42:12.518Z,91908.86
2018-07-27T13:44:44.665Z,91741.73
2018-07-27T13:47:13.584Z,91755.91
2018-07-27T13:49:42.141Z,91720.45
2018-07-27T13:52:10.674Z,92005.09
2018-07-27T13:54:39.178Z,91996.98
2018-07-27T13:57:08.676Z,92013.19
2018-07-27T13:59:37.302Z,91880.49
2018-07-27T14:02:05.993Z,91782.24
2018-07-27T14:04:34.463Z,91687.03
2018-07-27T14:07:03.958Z,91627.27
2018-07-27T14:09:32.471Z,91646.52
2018-07-27T14:12:01.054Z,91636.39
2018-07-27T14:14:29.566Z,91661.71
2018-07-27T14:16:58.112Z,91659.69
2018-07-27T14:19:27.733Z,91651.58
2018-07-27T14:21:56.300Z,91709.31
2018-07-27T14:24:24.837Z,91647.53
2018-07-27T14:26:53.424Z,91594.86
2018-07-27T14:29:22.115Z,91622.21
2018-07-27T14:31:50.741Z,91717.42
2018-07-27T14:34:19.300Z,91565.49
2018-07-27T14:36:47.805Z,91671.84
2018-07-27T14:39:16.839Z,91795.41
2018-07-27T14:41:45.506Z,91645.51
2018-07-27T14:44:14.081Z,91641.45
2018-07-27T14:46:42.565Z,91509.78
2018-07-27T14:49:12.353Z,91531.05
2018-07-27T14:51:41.443Z,91583.72
2018-07-27T14:54:11.277Z,91455.09
2018-07-27T14:56:40.380Z,91508.77
2018-07-27T14:59:09.397Z,91471.30
2018-07-27T15:01:38.324Z,91327.48
2018-07-27T15:04:07.512Z,91271.78
2018-07-27T15:06:36.032Z,91489.53
2018-07-27T15:09:06.987Z,91624.23
2018-07-27T15:11:35.506Z,91432.81
2018-07-27T15:14:04.045Z,91643.48
2018-07-27T15:16:32.561Z,91473.33
2018-07-27T15:19:01.081Z,91471.30
2018-07-27T15:21:29.585Z,91641.45
2018-07-27T15:23:58.029Z,91696.15
2018-07-27T15:26:26.773Z,91738.69
2018-07-27T15:28:55.242Z,91709.31
2018-07-27T15:31:23.800Z,91655.63
2018-07-27T15:33:52.305Z,91741.73
2018-07-27T15:36:20.796Z,91731.59
2018-07-27T15:38:49.320Z,91679.94
2018-07-27T15:41:17.808Z,91757.94
2018-07-27T15:43:46.352Z,91733.63
2018-07-27T15:46:14.877Z,91635.38
2018-07-27T15:48:43.387Z,91544.22
2018-07-27T15:51:12.000Z,91545.23
2018-07-27T15:53:40.508Z,91445.98
2018-07-27T15:56:09.013Z,91445.98
2018-07-27T15:58:37.513Z,91443.95
2018-07-27T16:01:06.161Z,91578.66
2018-07-27T16:03:41.409Z,91736.66
2018-07-27T16:06:09.976Z,91637.41
2018-07-27T16:08:38.430Z,91663.73
2018-07-27T16:11:07.097Z,91649.56
2018-07-27T16:13:35.637Z,91581.70
2018-07-27T16:16:04.185Z,91525.99
2018-07-27T16:18:32.686Z,91655.63
2018-07-27T16:21:01.248Z,91717.42
2018-07-27T16:23:29.737Z,91716.41
2018-07-27T16:25:58.240Z,91721.47
2018-07-27T16:28:26.732Z,91743.75
2018-07-27T16:30:55.192Z,91678.93
2018-07-27T16:33:23.772Z,91664.75
2018-07-27T16:35:52.285Z,91697.16
2018-07-27T16:38:20.821Z,91792.37
2018-07-27T16:40:49.740Z,91847.06
2018-07-27T16:43:19.147Z,91871.38
2018-07-27T16:45:47.801Z,91785.28
2018-07-27T16:48:16.357Z,91893.66
2018-07-27T16:50:44.918Z,91996.98
2018-07-27T16:53:13.602Z,91899.74
2018-07-27T16:55:42.056Z,91879.48
2018-07-27T16:58:10.566Z,91875.43
2018-07-27T17:00:39.072Z,91851.12
2018-07-27T17:03:07.573Z,91912.91
2018-07-27T17:05:36.146Z,92027.38
2018-07-27T17:08:04.927Z,92069.92
2018-07-27T17:10:33.424Z,92103.34
2018-07-27T17:13:01.928Z,92087.14
2018-07-27T17:15:30.483Z,92116.52
2018-07-27T17:17:58.928Z,91966.59
2018-07-27T17:20:27.392Z,92172.23
2018-07-27T17:22:56.049Z,92130.70
2018-07-27T17:25:24.615Z,92132.72
2018-07-27T17:27:53.208Z,92267.45
2018-07-27T17:30:21.716Z,92209.71
2018-07-27T17:32:50.303Z,92246.17
2018-07-27T17:35:18.774Z,92196.54
2018-07-27T17:37:47.979Z,92205.66
2018-07-27T17:40:16.610Z,92164.13
2018-07-27T17:42:45.139Z,92338.36
2018-07-27T17:45:13.650Z,92330.26
2018-07-27T17:47:42.253Z,92265.42
2018-07-27T17:50:10.748Z,92243.14
2018-07-27T17:52:39.250Z,92408.27
2018-07-27T17:55:07.793Z,92501.47
2018-07-27T17:57:36.388Z,92419.41
2018-07-27T18:00:05.788Z,92561.24
2018-07-27T18:02:34.327Z,92535.91
2018-07-27T18:05:02.834Z,92405.23
2018-07-27T18:07:32.007Z,92317.09
2018-07-27T18:10:01.103Z,92186.41
2018-07-27T18:12:29.699Z,92027.38
2018-07-27T18:14:58.206Z,92147.91
2018-07-27T18:17:26.817Z,92214.77
2018-07-27T18:19:55.333Z,92363.69
2018-07-27T18:22:23.842Z,92386.98
2018-07-27T18:24:52.727Z,92448.79
2018-07-27T18:27:21.200Z,92724.36
2018-07-27T18:29:49.884Z,92798.32
2018-07-27T18:32:18.403Z,92962.46
2018-07-27T18:34:46.970Z,92879.38
2018-07-27T18:37:15.497Z,92910.78
2018-07-27T18:39:44.060Z,92985.77
2018-07-27T18:42:12.521Z,92991.84
2018-07-27T18:44:41.054Z,93054.67
2018-07-27T18:47:09.537Z,93055.68
2018-07-27T18:49:38.557Z,93130.66
2018-07-27T18:52:07.073Z,93141.81
2018-07-27T18:54:35.604Z,93193.48
2018-07-27T18:57:04.090Z,93272.52
2018-07-27T18:59:33.160Z,93368.80
2018-07-27T19:02:01.685Z,93411.35
2018-07-27T19:04:30.177Z,93433.65
2018-07-27T19:06:58.673Z,93489.38
2018-07-27T19:09:27.207Z,93507.63
2018-07-27T19:11:55.763Z,93493.44
2018-07-27T19:14:24.242Z,93551.20
2018-07-27T19:16:52.865Z,93542.08
2018-07-27T19:19:21.383Z,93613.02
2018-07-27T19:21:49.901Z,93672.81
2018-07-27T19:24:18.497Z,93863.34
2018-07-27T19:26:46.974Z,93735.64
2018-07-27T19:29:16.044Z,93813.69
2018-07-27T19:31:45.409Z,93867.39
2018-07-27T19:34:14.245Z,93849.16
2018-07-27T19:36:42.724Z,93975.84
2018-07-27T19:39:12.384Z,94041.72
2018-07-27T19:41:41.453Z,94047.80
2018-07-27T19:44:09.961Z,94054.91
2018-07-27T19:46:38.577Z,94101.52
2018-07-27T19:49:07.139Z,94087.33
2018-07-27T19:51:35.746Z,94085.31
2018-07-27T19:54:04.231Z,94134.97
2018-07-27T19:56:33.124Z,94169.44
2018-07-27T19:59:01.611Z,94166.39
2018-07-27T20:01:30.082Z,94194.77
2018-07-27T20:03:58.597Z,94180.59
2018-07-27T20:06:27.266Z,94223.16
2018-07-27T20:08:56.076Z,94180.59
2018-07-27T20:11:24.677Z,94261.67
2018-07-27T20:13:53.217Z,94272.82
2018-07-27T20:16:22.344Z,94366.08
2018-07-27T20:18:50.872Z,94361.00
2018-07-27T20:21:19.417Z,94432.98
2018-07-27T20:23:47.922Z,94417.77
2018-07-27T20:26:16.446Z,94373.17
2018-07-27T20:28:44.944Z,94367.09
2018-07-27T20:31:13.425Z,94507.98
2018-07-27T20:33:41.941Z,94503.94
2018-07-27T20:36:10.484Z,94599.22
2018-07-27T20:38:39.027Z,94548.53
2018-07-27T20:41:08.201Z,94688.43
2018-07-27T20:43:36.665Z,94736.08
2018-07-27T20:46:05.149Z,94779.67
2018-07-27T20:48:33.700Z,94769.53
2018-07-27T20:51:02.170Z,94645.86
2018-07-27T20:53:30.662Z,94634.70
2018-07-27T20:55:59.182Z,94665.11
2018-07-27T20:58:27.722Z,94650.92
2018-07-27T21:00:56.244Z,94651.94
2018-07-27T21:03:24.740Z,94764.46
2018-07-27T21:05:53.252Z,94816.16
2018-07-27T21:08:21.773Z,94883.08
2018-07-27T21:10:50.224Z,94854.69
2018-07-27T21:13:18.722Z,94844.55
2018-07-27T21:15:47.314Z,94927.68
2018-07-27T21:18:15.847Z,94881.05
2018-07-27T21:20:44.345Z,94844.55
2018-07-27T21:23:12.846Z,94904.36
2018-07-27T21:25:41.353Z,94881.05
2018-07-27T21:28:09.864Z,94898.28
2018-07-27T21:30:38.437Z,94894.22
2018-07-27T21:33:06.933Z,94934.78
2018-07-27T21:35:35.418Z,94986.48
2018-07-27T21:38:03.981Z,94936.80
2018-07-27T21:40:32.525Z,94956.06
2018-07-27T21:43:01.614Z,95056.44
2018-07-27T21:45:30.096Z,94926.67
2018-07-27T21:47:58.577Z,94967.22
2018-07-27T21:50:27.087Z,94967.22
2018-07-27T21:52:55.580Z,94988.51
2018-07-27T21:55:24.110Z,95035.14
2018-07-27T21:57:52.654Z,95047.31
2018-07-27T22:00:21.176Z,95015.88
2018-07-27T22:02:49.739Z,94947.95
2018-07-27T22:05:18.280Z,95102.06
2018-07-27T22:07:49.916Z,95098.00
2018-07-27T22:10:18.492Z,95142.61
2018-07-27T22:12:47.112Z,95160.86
2018-07-27T22:15:19.830Z,95080.77
2018-07-27T22:17:48.930Z,95126.39
2018-07-27T22:20:17.425Z,95146.67
2018-07-27T22:22:45.915Z,95172.02
2018-07-27T22:25:14.442Z,95113.21
2018-07-27T22:27:43.102Z,95219.67
2018-07-27T22:30:12.442Z,95184.19
2018-07-27T22:32:40.857Z,95224.73
2018-07-27T22:35:09.377Z,95186.21
2018-07-27T22:37:39.469Z,95183.17
2018-07-27T22:40:09.326Z,95207.50
2018-07-27T22:42:37.896Z,95227.78
2018-07-27T22:45:07.437Z,95213.59
2018-07-27T22:47:35.940Z,95216.63
2018-07-27T22:50:04.845Z,95222.71
2018-07-27T22:52:38.666Z,95168.98
2018-07-27T22:55:09.064Z,95258.20
2018-07-27T22:57:37.614Z,95275.44
2018-07-27T23:00:07.809Z,95357.56
2018-07-27T23:02:36.348Z,95244.00
2018-07-27T23:05:05.309Z,95207.50
2018-07-27T23:07:33.856Z,95226.77
2018-07-27T23:10:02.438Z,95264.28
2018-07-27T23:12:30.978Z,95271.38
2018-07-27T23:14:59.582Z,95254.14
2018-07-27T23:17:28.155Z,95283.55
2018-07-27T23:19:56.744Z,95254.14
2018-07-27T23:22:25.601Z,95304.84
2018-07-27T23:24:54.187Z,95275.44
2018-07-27T23:27:22.667Z,95324.10
2018-07-27T23:29:51.217Z,95324.10
2018-07-27T23:32:19.748Z,95338.30
2018-07-27T23:34:48.228Z,95376.83
2018-07-27T23:37:16.772Z,95351.48
2018-07-27T23:39:45.261Z,95427.52
2018-07-27T23:42:13.809Z,95383.92
2018-07-27T23:44:42.301Z,95423.47
2018-07-27T23:47:10.794Z,95416.38
2018-07-27T23:49:39.302Z,95380.88
2018-07-27T23:52:07.824Z,95402.17
2018-07-27T23:54:36.308Z,95437.66
2018-07-27T23:57:04.893Z,95454.91
2018-07-27T23:59:33.360Z,95323.09
